createdAt,value
2023-05-06T00:01:43.030Z,0.70
2023-05-06T00:04:10.449Z,0.60
2023-05-06T00:06:37.930Z,1.27
2023-05-06T00:09:05.348Z,0.60
2023-05-06T00:11:32.691Z,0.50
2023-05-06T00:14:00.437Z,0.43
2023-05-06T00:16:28.112Z,0.50
2023-05-06T00:18:55.919Z,0.55
2023-05-06T00:21:23.375Z,0.73
2023-05-06T00:23:50.776Z,0.70
2023-05-06T00:26:18.095Z,0.50
2023-05-06T00:28:45.377Z,0.73
2023-05-06T00:31:12.785Z,0.70
2023-05-06T00:33:41.299Z,0.65
2023-05-06T00:36:08.897Z,0.40
2023-05-06T00:38:36.362Z,0.68
2023-05-06T00:41:03.889Z,1.73
2023-05-06T00:43:31.682Z,0.68
2023-05-06T00:45:59.179Z,0.60
2023-05-06T00:48:28.537Z,0.50
2023-05-06T00:50:56.700Z,1.40
2023-05-06T00:53:24.409Z,0.90
2023-05-06T00:55:51.890Z,0.93
2023-05-06T00:58:20.745Z,0.90
2023-05-06T01:00:49.064Z,0.80
2023-05-06T01:03:17.244Z,0.70
2023-05-06T01:06:00.645Z,0.93
2023-05-06T01:08:35.688Z,1.13
2023-05-06T01:11:06.124Z,0.70
2023-05-06T01:13:57.156Z,2.55
2023-05-06T01:16:26.832Z,0.90
2023-05-06T01:18:55.363Z,0.65
2023-05-06T01:21:24.166Z,0.90
2023-05-06T01:23:56.094Z,0.85
2023-05-06T01:26:24.283Z,0.80
2023-05-06T01:28:51.783Z,0.60
2023-05-06T01:31:27.036Z,0.60
2023-05-06T01:34:06.763Z,1.70
2023-05-06T01:37:25.430Z,0.70
2023-05-06T01:40:54.514Z,0.70
2023-05-06T01:43:42.109Z,0.80
2023-05-06T01:46:49.352Z,0.98
2023-05-06T01:49:24.785Z,0.75
2023-05-06T01:51:57.652Z,1.17
2023-05-06T01:54:35.849Z,0.95
2023-05-06T01:57:48.312Z,1.20
2023-05-06T02:01:29.497Z,1.20
2023-05-06T02:04:33.438Z,1.25
2023-05-06T02:07:10.734Z,1.30
2023-05-06T02:10:13.183Z,1.35
2023-05-06T02:12:51.665Z,1.40
2023-05-06T02:15:19.280Z,1.63
2023-05-06T02:25:43.947Z,1.50
2023-05-06T02:35:42.661Z,1.23
2023-05-06T02:38:23.431Z,1.75
2023-05-06T02:48:28.691Z,1.20
2023-05-06T02:50:56.168Z,1.40
2023-05-06T02:53:24.014Z,1.20
2023-05-06T02:55:51.482Z,1.10
2023-05-06T02:58:18.847Z,1.15
2023-05-06T03:00:46.306Z,1.13
2023-05-06T03:03:13.799Z,1.73
2023-05-06T03:05:41.137Z,1.27
2023-05-06T03:08:08.960Z,1.60
2023-05-06T03:10:36.854Z,1.70
2023-05-06T03:13:04.327Z,1.40
2023-05-06T03:15:32.245Z,1.40
2023-05-06T03:18:00.238Z,1.60
2023-05-06T03:20:28.891Z,1.80
2023-05-06T03:22:57.649Z,1.80
2023-05-06T03:25:25.386Z,1.58
2023-05-06T03:27:53.786Z,1.35
2023-05-06T03:30:23.486Z,1.65
2023-05-06T03:32:56.634Z,1.43
2023-05-06T03:35:29.886Z,1.70
2023-05-06T03:38:00.526Z,2.03
2023-05-06T03:40:35.392Z,2.10
2023-05-06T03:43:03.005Z,2.10
2023-05-06T03:45:30.674Z,2.10
2023-05-06T03:48:01.011Z,1.88
2023-05-06T03:50:30.958Z,2.00
2023-05-06T03:52:58.969Z,2.08
2023-05-06T03:59:02.572Z,1.90
2023-05-06T04:01:30.556Z,1.70
2023-05-06T04:03:58.358Z,2.10
2023-05-06T04:06:27.191Z,2.40
2023-05-06T04:08:54.742Z,1.70
2023-05-06T04:12:01.333Z,1.60
2023-05-06T04:14:29.609Z,1.38
2023-05-06T04:16:57.461Z,1.42
2023-05-06T04:19:24.826Z,2.15
2023-05-06T04:21:52.660Z,1.80
2023-05-06T04:24:21.472Z,1.98
2023-05-06T04:26:50.076Z,1.60
2023-05-06T04:29:21.297Z,1.80
2023-05-06T04:32:03.817Z,2.10
2023-05-06T04:34:37.597Z,2.42
2023-05-06T04:37:07.453Z,2.40
2023-05-06T04:39:58.004Z,3.38
2023-05-06T04:42:26.035Z,3.50
2023-05-06T04:45:04.053Z,2.67
2023-05-06T04:47:34.373Z,2.47
2023-05-06T04:50:04.448Z,2.58
2023-05-06T04:52:32.233Z,2.28
2023-05-06T04:55:00.252Z,2.53
2023-05-06T04:57:27.777Z,3.00
2023-05-06T04:59:57.405Z,3.03
2023-05-06T05:02:26.120Z,3.70
2023-05-06T05:04:54.304Z,3.47
2023-05-06T05:07:22.698Z,3.85
2023-05-06T05:09:50.086Z,3.83
2023-05-06T05:12:17.457Z,3.30
2023-05-06T05:14:48.311Z,3.73
2023-05-06T05:17:15.976Z,4.43
2023-05-06T05:19:45.653Z,3.78
2023-05-06T05:22:14.281Z,3.47
2023-05-06T05:24:41.676Z,4.25
2023-05-06T05:27:12.233Z,4.57
2023-05-06T05:29:40.875Z,4.22
2023-05-06T05:32:09.597Z,4.78
2023-05-06T05:34:37.443Z,5.00
2023-05-06T05:37:05.435Z,3.70
2023-05-06T05:39:37.002Z,3.40
2023-05-06T05:42:04.876Z,3.65
2023-05-06T05:44:33.897Z,3.45
2023-05-06T05:47:01.354Z,3.78
2023-05-06T05:49:31.690Z,3.95
2023-05-06T05:52:02.389Z,3.42
2023-05-06T05:54:39.445Z,3.20
2023-05-06T06:00:29.216Z,3.78
2023-05-06T06:03:17.573Z,3.50
2023-05-06T06:05:54.344Z,4.20
2023-05-06T06:08:29.924Z,4.53
2023-05-06T06:11:06.762Z,3.92
2023-05-06T06:13:47.234Z,4.33
2023-05-06T06:16:21.993Z,8.32
2023-05-06T06:18:55.803Z,5.90
2023-05-06T06:21:29.497Z,4.38
2023-05-06T06:24:02.850Z,6.53
2023-05-06T06:26:35.070Z,5.35
2023-05-06T06:29:08.086Z,5.00
2023-05-06T06:31:40.682Z,5.05
2023-05-06T06:34:09.796Z,4.80
2023-05-06T06:36:37.329Z,6.18
2023-05-06T06:39:05.038Z,6.43
2023-05-06T06:41:32.804Z,8.70
2023-05-06T06:44:00.710Z,7.00
2023-05-06T06:46:29.977Z,5.43
2023-05-06T06:48:57.678Z,7.18
2023-05-06T06:51:25.116Z,6.70
2023-05-06T06:53:53.744Z,6.38
2023-05-06T06:56:21.885Z,5.00
2023-05-06T06:58:51.192Z,6.32
2023-05-06T07:01:19.964Z,5.72
2023-05-06T07:03:55.574Z,7.15
2023-05-06T07:06:28.198Z,8.20
2023-05-06T07:08:57.796Z,7.88
2023-05-06T07:11:25.886Z,6.32
2023-05-06T07:13:55.127Z,6.88
2023-05-06T07:16:22.627Z,7.07
2023-05-06T07:18:51.422Z,8.35
2023-05-06T07:21:18.767Z,10.18
2023-05-06T07:23:46.500Z,11.25
2023-05-06T07:26:19.892Z,9.00
2023-05-06T07:28:51.896Z,8.30
2023-05-06T07:31:22.524Z,10.70
2023-05-06T07:33:49.996Z,7.43
2023-05-06T07:36:23.185Z,7.10
2023-05-06T07:38:54.300Z,7.50
2023-05-06T07:41:21.947Z,7.47
2023-05-06T07:43:49.319Z,8.60
2023-05-06T07:46:19.584Z,6.80
2023-05-06T07:48:47.570Z,8.03
2023-05-06T07:51:14.877Z,8.10
2023-05-06T07:53:42.284Z,6.82
2023-05-06T07:56:10.167Z,7.45
2023-05-06T07:58:39.259Z,7.30
2023-05-06T08:01:07.916Z,6.18
2023-05-06T08:03:39.637Z,7.15
2023-05-06T08:06:10.381Z,6.43
2023-05-06T08:08:38.749Z,7.47
2023-05-06T08:11:06.949Z,7.05
2023-05-06T08:13:35.412Z,6.07
2023-05-06T08:16:04.028Z,5.57
2023-05-06T08:18:33.099Z,5.45
2023-05-06T08:21:01.014Z,8.57
2023-05-06T08:23:28.326Z,6.05
2023-05-06T08:25:55.713Z,5.60
2023-05-06T08:28:24.684Z,6.82
2023-05-06T08:30:52.791Z,6.65
2023-05-06T08:33:20.153Z,6.68
2023-05-06T08:35:48.061Z,6.15
2023-05-06T08:38:15.353Z,7.68
2023-05-06T08:40:45.485Z,6.80
2023-05-06T08:43:14.573Z,7.25
2023-05-06T08:45:42.579Z,6.53
2023-05-06T08:48:10.468Z,6.53
2023-05-06T08:50:40.714Z,5.70
2023-05-06T08:53:08.174Z,6.10
2023-05-06T08:55:36.305Z,7.88
2023-05-06T08:58:06.523Z,6.53
2023-05-06T09:00:34.139Z,6.70
2023-05-06T09:03:01.780Z,6.28
2023-05-06T09:05:29.332Z,6.82
2023-05-06T09:07:56.742Z,6.90
2023-05-06T09:10:24.157Z,6.47
2023-05-06T09:12:54.803Z,6.63
2023-05-06T09:15:25.568Z,5.95
2023-05-06T09:17:54.073Z,6.07
2023-05-06T09:20:21.746Z,6.60
2023-05-06T09:22:49.208Z,6.05
2023-05-06T09:25:16.764Z,6.05
2023-05-06T09:27:44.300Z,6.25
2023-05-06T09:30:12.507Z,5.50
2023-05-06T09:32:40.898Z,6.90
2023-05-06T09:35:11.121Z,6.20
2023-05-06T09:37:39.558Z,6.38
2023-05-06T09:40:07.389Z,6.10
2023-05-06T09:42:35.331Z,5.95
2023-05-06T09:45:04.394Z,4.75
2023-05-06T09:47:36.337Z,5.50
2023-05-06T09:50:04.166Z,7.22
2023-05-06T09:52:32.897Z,5.80
2023-05-06T09:55:01.200Z,5.75
2023-05-06T09:57:31.086Z,6.15
2023-05-06T09:59:58.538Z,4.78
2023-05-06T10:02:27.155Z,5.15
2023-05-06T10:04:58.119Z,4.85
2023-05-06T10:07:29.642Z,3.92
2023-05-06T10:09:59.135Z,5.10
2023-05-06T10:12:26.849Z,4.75
2023-05-06T10:14:54.989Z,2.88
2023-05-06T10:17:25.506Z,2.40
2023-05-06T10:19:57.801Z,3.13
2023-05-06T10:24:59.328Z,2.90
2023-05-06T10:27:27.873Z,2.17
2023-05-06T10:29:59.020Z,2.35
2023-05-06T10:32:29.650Z,2.70
2023-05-06T10:34:58.232Z,2.58
2023-05-06T10:37:26.690Z,2.97
2023-05-06T10:39:56.234Z,3.08
2023-05-06T10:42:29.841Z,3.25
2023-05-06T10:44:57.289Z,3.97
2023-05-06T10:47:24.753Z,4.50
2023-05-06T10:50:20.588Z,3.90
2023-05-06T10:52:49.098Z,4.00
2023-05-06T10:55:39.838Z,4.30
2023-05-06T10:58:15.307Z,4.40
2023-05-06T11:00:55.096Z,3.55
2023-05-06T11:03:24.126Z,3.55
2023-05-06T11:05:52.449Z,3.05
2023-05-06T11:08:23.759Z,2.85
2023-05-06T11:10:51.713Z,3.30
2023-05-06T11:13:22.302Z,3.83
2023-05-06T11:15:53.077Z,3.60
2023-05-06T11:19:05.180Z,2.87
2023-05-06T11:21:33.111Z,4.15
2023-05-06T11:24:01.162Z,2.20
2023-05-06T11:35:03.729Z,2.30
2023-05-06T11:41:48.316Z,2.95
2023-05-06T11:44:24.926Z,2.95
2023-05-06T11:46:52.928Z,5.78
2023-05-06T11:49:20.542Z,3.65
2023-05-06T11:51:49.646Z,4.40
2023-05-06T11:54:19.122Z,5.97
2023-05-06T11:56:47.377Z,3.10
2023-05-06T11:59:14.828Z,2.00
2023-05-06T12:01:43.471Z,3.17
2023-05-06T12:04:12.085Z,2.78
2023-05-06T12:06:40.125Z,2.20
2023-05-06T12:09:09.019Z,1.80
2023-05-06T12:11:38.600Z,1.00
2023-05-06T12:14:09.997Z,1.88
2023-05-06T12:16:38.229Z,1.33
2023-05-06T12:19:05.909Z,1.48
2023-05-06T12:21:39.630Z,1.77
2023-05-06T12:24:07.569Z,1.20
2023-05-06T12:26:55.746Z,0.73
2023-05-06T12:29:23.170Z,0.68
2023-05-06T12:31:50.822Z,0.82
2023-05-06T12:34:18.590Z,1.20
2023-05-06T12:36:47.555Z,0.75
2023-05-06T12:39:15.062Z,0.73
2023-05-06T12:41:43.480Z,0.90
2023-05-06T12:44:29.474Z,1.48
2023-05-06T12:46:56.919Z,1.10
2023-05-06T12:49:24.310Z,0.80
2023-05-06T12:52:11.135Z,0.77
2023-05-06T12:54:39.041Z,1.00
2023-05-06T12:57:06.439Z,1.10
2023-05-06T12:59:34.108Z,1.50
2023-05-06T13:02:01.537Z,2.90
2023-05-06T13:04:29.096Z,1.35
2023-05-06T13:06:57.102Z,0.75
2023-05-06T13:09:24.875Z,0.90
2023-05-06T13:11:53.013Z,0.73
2023-05-06T13:14:20.756Z,1.48
2023-05-06T13:16:48.713Z,0.90
2023-05-06T13:21:46.898Z,1.13
2023-05-06T13:24:14.339Z,0.70
2023-05-06T13:26:41.727Z,1.25
2023-05-06T13:29:09.093Z,0.93
2023-05-06T13:31:36.504Z,0.60
2023-05-06T13:34:04.114Z,0.60
2023-05-06T13:36:32.543Z,0.70
2023-05-06T13:39:00.534Z,0.80
2023-05-06T13:41:27.967Z,0.70
2023-05-06T13:43:55.386Z,1.58
2023-05-06T13:46:23.244Z,0.90
2023-05-06T13:48:51.089Z,0.70
2023-05-06T13:51:18.581Z,0.88
2023-05-06T13:53:46.261Z,0.73
2023-05-06T13:56:38.873Z,0.93
2023-05-06T13:59:08.144Z,1.95
2023-05-06T14:01:36.349Z,0.50
2023-05-06T14:04:03.784Z,0.90
2023-05-06T14:06:31.305Z,1.00
2023-05-06T14:08:58.734Z,1.08
2023-05-06T14:11:26.114Z,0.50
2023-05-06T14:13:53.509Z,0.95
2023-05-06T14:16:21.037Z,0.70
2023-05-06T14:18:48.865Z,0.80
2023-05-06T14:21:16.397Z,0.60
2023-05-06T14:23:43.913Z,0.68
2023-05-06T14:26:11.384Z,0.68
2023-05-06T14:28:38.752Z,0.60
2023-05-06T14:31:14.076Z,0.47
2023-05-06T14:33:41.631Z,0.50
2023-05-06T14:36:09.272Z,0.80
2023-05-06T14:38:36.637Z,0.95
2023-05-06T14:41:04.019Z,0.52
2023-05-06T14:43:31.518Z,0.70
2023-05-06T14:46:01.071Z,2.40
2023-05-06T14:48:28.679Z,1.15
2023-05-06T14:50:56.524Z,0.80
2023-05-06T14:53:24.229Z,0.60
2023-05-06T14:55:51.624Z,0.55
2023-05-06T14:58:18.990Z,0.40
2023-05-06T15:00:46.422Z,0.90
2023-05-06T15:03:13.750Z,0.45
2023-05-06T15:05:41.242Z,0.60
2023-05-06T15:08:09.977Z,0.50
2023-05-06T15:10:37.567Z,0.70
2023-05-06T15:13:05.107Z,0.50
2023-05-06T15:15:32.493Z,0.70
2023-05-06T15:17:59.925Z,0.30
2023-05-06T15:20:27.401Z,0.52
2023-05-06T15:22:54.740Z,0.40
2023-05-06T15:25:34.393Z,0.73
2023-05-06T15:28:03.479Z,0.80
2023-05-06T15:30:30.888Z,0.40
2023-05-06T15:32:58.401Z,0.30
2023-05-06T15:35:25.927Z,0.55
2023-05-06T15:37:59.833Z,0.90
2023-05-06T15:40:27.637Z,0.85
2023-05-06T15:42:55.156Z,0.70
2023-05-06T15:45:22.608Z,0.57
2023-05-06T15:47:50.243Z,0.40
2023-05-06T15:50:31.921Z,0.45
2023-05-06T15:53:06.737Z,0.50
2023-05-06T15:55:42.366Z,0.52
2023-05-06T15:58:12.788Z,0.50
2023-05-06T16:00:40.248Z,0.50
2023-05-06T16:03:10.898Z,0.50
2023-05-06T16:05:39.963Z,0.88
2023-05-06T16:08:07.329Z,0.57
2023-05-06T16:10:35.468Z,0.40
2023-05-06T16:13:03.124Z,0.40
2023-05-06T16:15:30.986Z,0.50
2023-05-06T16:17:58.499Z,0.60
2023-05-06T16:20:26.600Z,0.50
2023-05-06T16:22:53.971Z,0.52
2023-05-06T16:25:21.404Z,0.40
2023-05-06T16:27:49.101Z,0.40
2023-05-06T16:30:16.745Z,0.30
2023-05-06T16:32:44.528Z,0.40
2023-05-06T16:35:12.990Z,1.52
2023-05-06T16:37:40.475Z,0.90
2023-05-06T16:40:08.509Z,0.50
2023-05-06T16:42:36.352Z,0.40
2023-05-06T16:45:03.808Z,0.40
2023-05-06T16:47:31.895Z,0.73
2023-05-06T16:49:59.445Z,0.57
2023-05-06T16:52:28.482Z,0.50
2023-05-06T16:54:58.606Z,0.63
2023-05-06T16:57:26.365Z,0.50
2023-05-06T16:59:54.287Z,0.50
2023-05-06T17:02:21.910Z,0.60
2023-05-06T17:04:49.302Z,0.57
2023-05-06T17:07:17.118Z,0.73
2023-05-06T17:09:44.966Z,0.90
2023-05-06T17:12:12.292Z,0.50
2023-05-06T17:14:41.414Z,0.65
2023-05-06T17:17:09.256Z,0.85
2023-05-06T17:19:36.641Z,0.70
2023-05-06T17:22:04.339Z,0.65
2023-05-06T17:24:31.816Z,0.70
2023-05-06T17:26:59.474Z,0.75
2023-05-06T17:29:26.924Z,1.23
2023-05-06T17:31:54.433Z,1.50
2023-05-06T17:36:49.489Z,2.10
2023-05-06T17:39:17.066Z,1.90
2023-05-06T17:41:44.440Z,2.90
2023-05-06T17:44:12.021Z,2.63
2023-05-06T17:46:39.654Z,4.38
2023-05-06T17:49:08.420Z,5.40
2023-05-06T17:51:36.484Z,5.68
2023-05-06T17:54:04.235Z,4.50
2023-05-06T17:56:31.780Z,4.82
2023-05-06T17:59:02.673Z,3.90
2023-05-06T18:01:30.237Z,3.75
2023-05-06T18:03:58.188Z,4.00
2023-05-06T18:06:27.091Z,4.72
2023-05-06T18:08:54.847Z,3.55
2023-05-06T18:11:22.234Z,2.80
2023-05-06T18:13:49.572Z,2.60
2023-05-06T18:16:17.185Z,2.80
2023-05-06T18:18:44.619Z,2.25
2023-05-06T18:21:11.992Z,2.25
2023-05-06T18:23:39.327Z,1.70
2023-05-06T18:26:07.077Z,1.40
2023-05-06T18:28:39.891Z,1.33
2023-05-06T18:31:07.697Z,1.55
2023-05-06T18:33:36.012Z,1.95
2023-05-06T18:36:06.279Z,1.98
2023-05-06T18:38:33.666Z,1.65
2023-05-06T18:41:02.917Z,1.60
2023-05-06T18:43:31.316Z,1.60
2023-05-06T18:45:58.673Z,1.33
2023-05-06T18:48:26.287Z,1.33
2023-05-06T18:50:54.395Z,2.13
2023-05-06T18:53:21.832Z,1.10
2023-05-06T18:55:49.282Z,1.10
2023-05-06T18:58:18.485Z,2.38
2023-05-06T19:00:45.880Z,1.00
2023-05-06T19:03:16.954Z,2.05
2023-05-06T19:05:44.497Z,1.10
2023-05-06T19:08:13.690Z,1.27
2023-05-06T19:10:41.157Z,1.45
2023-05-06T19:13:09.125Z,1.02
2023-05-06T19:15:37.191Z,1.17
2023-05-06T19:18:05.050Z,1.30
2023-05-06T19:20:33.189Z,1.30
2023-05-06T19:23:03.228Z,1.30
2023-05-06T19:25:31.601Z,1.38
2023-05-06T19:27:59.034Z,1.30
2023-05-06T19:30:27.498Z,1.50
2023-05-06T19:32:56.212Z,1.48
2023-05-06T19:35:26.087Z,1.38
2023-05-06T19:37:55.105Z,1.63
2023-05-06T19:40:22.788Z,1.73
2023-05-06T19:42:50.322Z,1.60
2023-05-06T19:45:19.207Z,1.50
2023-05-06T19:47:47.226Z,2.25
2023-05-06T19:50:14.742Z,1.58
2023-05-06T19:52:42.104Z,2.50
2023-05-06T19:55:10.175Z,1.50
2023-05-06T19:57:37.882Z,1.30
2023-05-06T20:00:09.992Z,1.50
2023-05-06T20:02:38.395Z,1.52
2023-05-06T20:05:06.442Z,1.45
2023-05-06T20:07:34.154Z,1.90
2023-05-06T20:10:01.740Z,1.92
2023-05-06T20:12:30.216Z,1.73
2023-05-06T20:14:57.630Z,1.55
2023-05-06T20:17:25.011Z,1.70
2023-05-06T20:19:52.604Z,1.48
2023-05-06T20:22:20.021Z,1.77
2023-05-06T20:24:47.647Z,1.67
2023-05-06T20:27:15.111Z,1.40
2023-05-06T20:29:42.769Z,2.72
2023-05-06T20:32:10.518Z,1.55
2023-05-06T20:34:38.053Z,1.45
2023-05-06T20:37:05.471Z,2.67
2023-05-06T20:39:32.948Z,1.88
2023-05-06T20:42:00.517Z,1.60
2023-05-06T20:44:27.963Z,1.50
2023-05-06T20:46:55.442Z,1.98
2023-05-06T20:49:22.990Z,1.80
2023-05-06T20:51:50.490Z,1.75
2023-05-06T20:54:18.169Z,1.70
2023-05-06T20:56:45.548Z,1.80
2023-05-06T20:59:12.973Z,1.60
2023-05-06T21:01:40.382Z,1.33
2023-05-06T21:04:07.742Z,1.58
2023-05-06T21:06:35.149Z,1.70
2023-05-06T21:09:02.589Z,1.90
2023-05-06T21:11:29.891Z,1.73
2023-05-06T21:13:58.870Z,1.63
2023-05-06T21:16:26.361Z,1.60
2023-05-06T21:18:53.827Z,1.60
2023-05-06T21:21:21.323Z,1.95
2023-05-06T21:23:49.151Z,1.60
2023-05-06T21:26:16.667Z,1.80
2023-05-06T21:28:51.089Z,2.08
2023-05-06T21:31:22.122Z,1.70
2023-05-06T21:33:52.490Z,2.30
2023-05-06T21:36:19.938Z,1.92
2023-05-06T21:38:59.367Z,1.58
2023-05-06T21:41:31.040Z,1.88
2023-05-06T21:43:59.062Z,1.67
2023-05-06T21:46:29.738Z,1.80
2023-05-06T21:48:57.535Z,2.10
2023-05-06T21:51:27.726Z,1.80
2023-05-06T21:53:55.230Z,1.67
2023-05-06T21:56:23.178Z,1.58
2023-05-06T21:58:51.206Z,1.90
2023-05-06T22:01:19.016Z,1.60
2023-05-06T22:03:46.565Z,1.80
2023-05-06T22:06:14.188Z,3.20
2023-05-06T22:08:42.528Z,1.45
2023-05-06T22:11:09.919Z,1.80
2023-05-06T22:13:37.349Z,1.50
2023-05-06T22:16:08.244Z,1.33
2023-05-06T22:18:36.021Z,1.48
2023-05-06T22:21:03.489Z,1.80
2023-05-06T22:23:30.872Z,1.70
2023-05-06T22:25:59.204Z,1.52
2023-05-06T22:28:27.914Z,1.52
2023-05-06T22:30:55.719Z,1.50
2023-05-06T22:33:23.095Z,1.70
2023-05-06T22:35:51.118Z,1.50
2023-05-06T22:38:18.504Z,1.80
2023-05-06T22:40:45.983Z,1.77
2023-05-06T22:43:13.340Z,1.70
2023-05-06T22:45:40.875Z,1.58
2023-05-06T22:48:08.298Z,2.55
2023-05-06T22:50:36.516Z,1.67
2023-05-06T22:53:13.705Z,1.90
2023-05-06T22:55:42.838Z,1.90
2023-05-06T22:58:10.700Z,1.90
2023-05-06T23:00:40.612Z,1.63
2023-05-06T23:03:08.089Z,1.88
2023-05-06T23:05:35.825Z,2.00
2023-05-06T23:08:03.734Z,1.83
2023-05-06T23:10:31.006Z,1.70
2023-05-06T23:13:02.175Z,1.90
2023-05-06T23:17:57.437Z,1.60
2023-05-06T23:20:25.090Z,2.53
2023-05-06T23:22:52.503Z,1.48
2023-05-06T23:25:20.868Z,3.00
2023-05-06T23:27:48.191Z,1.42
2023-05-06T23:30:15.618Z,1.40
2023-05-06T23:32:43.102Z,3.42
2023-05-06T23:35:10.909Z,2.03
2023-05-06T23:37:38.580Z,1.88
2023-05-06T23:40:06.232Z,1.75
2023-05-06T23:42:33.553Z,1.58
2023-05-06T23:45:00.950Z,1.55
2023-05-06T23:47:28.264Z,1.77
2023-05-06T23:49:55.706Z,1.80
2023-05-06T23:52:23.036Z,1.60
2023-05-06T23:54:50.860Z,1.77
2023-05-06T23:57:18.192Z,1.52
2023-05-06T23:59:45.694Z,3.28
